sensor_id;sensor_type;location;lat;lon;timestamp;temperature;humidity
15707;DHT22;7953;54.302;10.128;2023-07-20T00:00:19;14.50;99.90
15707;DHT22;7953;54.302;10.128;2023-07-20T00:02:49;14.50;99.90
15707;DHT22;7953;54.302;10.128;2023-07-20T00:05:17;14.50;99.90
15707;DHT22;7953;54.302;10.128;2023-07-20T00:07:46;14.50;99.90
15707;DHT22;7953;54.302;10.128;2023-07-20T00:10:17;14.50;99.90
15707;DHT22;7953;54.302;10.128;2023-07-20T00:12:45;14.50;99.90
15707;DHT22;7953;54.302;10.128;2023-07-20T00:15:13;14.50;99.90
15707;DHT22;7953;54.302;10.128;2023-07-20T00:17:40;14.50;99.90
15707;DHT22;7953;54.302;10.128;2023-07-20T00:20:08;14.50;99.90
15707;DHT22;7953;54.302;10.128;2023-07-20T00:22:35;14.40;99.90
15707;DHT22;7953;54.302;10.128;2023-07-20T00:25:02;14.40;99.90
15707;DHT22;7953;54.302;10.128;2023-07-20T00:27:29;14.30;99.90
15707;DHT22;7953;54.302;10.128;2023-07-20T00:29:58;14.30;99.90
15707;DHT22;7953;54.302;10.128;2023-07-20T00:32:25;14.30;99.90
15707;DHT22;7953;54.302;10.128;2023-07-20T00:34:51;14.20;99.90
15707;DHT22;7953;54.302;10.128;2023-07-20T00:37:18;14.20;99.90
15707;DHT22;7953;54.302;10.128;2023-07-20T00:39:45;14.20;99.90
15707;DHT22;7953;54.302;10.128;2023-07-20T00:42:12;14.20;99.90
15707;DHT22;7953;54.302;10.128;2023-07-20T00:44:39;14.20;99.90
15707;DHT22;7953;54.302;10.128;2023-07-20T00:47:07;14.10;99.90
15707;DHT22;7953;54.302;10.128;2023-07-20T00:49:35;14.10;99.90
15707;DHT22;7953;54.302;10.128;2023-07-20T00:52:03;14.10;99.90
15707;DHT22;7953;54.302;10.128;2023-07-20T00:54:31;14.10;99.90
15707;DHT22;7953;54.302;10.128;2023-07-20T00:56:59;14.10;99.90
15707;DHT22;7953;54.302;10.128;2023-07-20T00:59:27;14.00;99.90
15707;DHT22;7953;54.302;10.128;2023-07-20T01:01:54;14.00;99.90
15707;DHT22;7953;54.302;10.128;2023-07-20T01:04:22;14.00;99.90
15707;DHT22;7953;54.302;10.128;2023-07-20T01:06:56;14.00;99.90
15707;DHT22;7953;54.302;10.128;2023-07-20T01:09:28;14.00;99.90
15707;DHT22;7953;54.302;10.128;2023-07-20T01:12:02;14.00;99.90
15707;DHT22;7953;54.302;10.128;2023-07-20T01:14:30;14.00;99.90
15707;DHT22;7953;54.302;10.128;2023-07-20T01:16:57;13.90;99.90
15707;DHT22;7953;54.302;10.128;2023-07-20T01:19:26;13.90;99.90
15707;DHT22;7953;54.302;10.128;2023-07-20T01:22:03;13.80;99.90
15707;DHT22;7953;54.302;10.128;2023-07-20T01:24:56;13.80;99.90
15707;DHT22;7953;54.302;10.128;2023-07-20T01:30:40;13.80;99.90
15707;DHT22;7953;54.302;10.128;2023-07-20T01:33:13;13.80;99.90
15707;DHT22;7953;54.302;10.128;2023-07-20T01:35:41;13.80;99.90
15707;DHT22;7953;54.302;10.128;2023-07-20T01:38:11;13.70;99.90
15707;DHT22;7953;54.302;10.128;2023-07-20T01:40:39;13.70;99.90
15707;DHT22;7953;54.302;10.128;2023-07-20T01:43:07;13.60;99.90
15707;DHT22;7953;54.302;10.128;2023-07-20T01:45:34;13.60;99.90
15707;DHT22;7953;54.302;10.128;2023-07-20T01:48:00;13.60;99.90
15707;DHT22;7953;54.302;10.128;2023-07-20T01:50:29;13.60;99.90
15707;DHT22;7953;54.302;10.128;2023-07-20T01:52:56;13.60;99.90
15707;DHT22;7953;54.302;10.128;2023-07-20T01:55:23;13.50;99.90
15707;DHT22;7953;54.302;10.128;2023-07-20T01:57:50;13.50;99.90
15707;DHT22;7953;54.302;10.128;2023-07-20T02:00:17;13.50;99.90
15707;DHT22;7953;54.302;10.128;2023-07-20T02:02:46;13.40;99.90
15707;DHT22;7953;54.302;10.128;2023-07-20T02:05:13;13.40;99.90
15707;DHT22;7953;54.302;10.128;2023-07-20T02:07:42;13.30;99.90
15707;DHT22;7953;54.302;10.128;2023-07-20T02:10:09;13.40;99.90
15707;DHT22;7953;54.302;10.128;2023-07-20T02:12:36;13.30;99.90
15707;DHT22;7953;54.302;10.128;2023-07-20T02:15:04;13.30;99.90
15707;DHT22;7953;54.302;10.128;2023-07-20T02:17:31;13.30;99.90
15707;DHT22;7953;54.302;10.128;2023-07-20T02:19:58;13.20;99.90
15707;DHT22;7953;54.302;10.128;2023-07-20T02:22:25;13.20;99.90
15707;DHT22;7953;54.302;10.128;2023-07-20T02:24:53;13.20;99.90
15707;DHT22;7953;54.302;10.128;2023-07-20T02:27:20;13.20;99.90
15707;DHT22;7953;54.302;10.128;2023-07-20T02:29:47;13.10;99.90
15707;DHT22;7953;54.302;10.128;2023-07-20T02:32:14;13.10;99.90
15707;DHT22;7953;54.302;10.128;2023-07-20T02:34:41;13.20;99.90
15707;DHT22;7953;54.302;10.128;2023-07-20T02:37:07;13.10;99.90
15707;DHT22;7953;54.302;10.128;2023-07-20T02:39:34;13.20;99.90
15707;DHT22;7953;54.302;10.128;2023-07-20T02:42:03;13.10;99.90
15707;DHT22;7953;54.302;10.128;2023-07-20T02:44:30;13.20;99.90
15707;DHT22;7953;54.302;10.128;2023-07-20T02:46:57;13.20;99.90
15707;DHT22;7953;54.302;10.128;2023-07-20T02:49:23;13.20;99.90
15707;DHT22;7953;54.302;10.128;2023-07-20T02:51:50;13.20;99.90
15707;DHT22;7953;54.302;10.128;2023-07-20T02:54:17;13.20;99.90
15707;DHT22;7953;54.302;10.128;2023-07-20T02:56:44;13.20;99.90
15707;DHT22;7953;54.302;10.128;2023-07-20T02:59:12;13.20;99.90
15707;DHT22;7953;54.302;10.128;2023-07-20T03:01:39;13.20;99.90
15707;DHT22;7953;54.302;10.128;2023-07-20T03:04:07;13.20;99.90
15707;DHT22;7953;54.302;10.128;2023-07-20T03:06:35;13.20;99.90
15707;DHT22;7953;54.302;10.128;2023-07-20T03:09:02;13.10;99.90
15707;DHT22;7953;54.302;10.128;2023-07-20T03:11:30;13.10;99.90
15707;DHT22;7953;54.302;10.128;2023-07-20T03:13:57;13.10;99.90
15707;DHT22;7953;54.302;10.128;2023-07-20T03:16:25;13.10;99.90
15707;DHT22;7953;54.302;10.128;2023-07-20T03:18:52;13.10;99.90
15707;DHT22;7953;54.302;10.128;2023-07-20T03:21:19;13.10;99.90
15707;DHT22;7953;54.302;10.128;2023-07-20T03:23:46;13.10;99.90
15707;DHT22;7953;54.302;10.128;2023-07-20T03:26:12;13.00;99.90
15707;DHT22;7953;54.302;10.128;2023-07-20T03:28:40;13.00;99.90
15707;DHT22;7953;54.302;10.128;2023-07-20T03:31:07;13.00;99.90
15707;DHT22;7953;54.302;10.128;2023-07-20T03:33:35;13.10;99.90
15707;DHT22;7953;54.302;10.128;2023-07-20T03:36:02;13.10;99.90
15707;DHT22;7953;54.302;10.128;2023-07-20T03:38:29;13.10;99.90
15707;DHT22;7953;54.302;10.128;2023-07-20T03:40:57;13.10;99.90
15707;DHT22;7953;54.302;10.128;2023-07-20T03:43:25;13.10;99.90
15707;DHT22;7953;54.302;10.128;2023-07-20T03:45:53;13.10;99.90
15707;DHT22;7953;54.302;10.128;2023-07-20T03:48:22;13.10;99.90
15707;DHT22;7953;54.302;10.128;2023-07-20T03:50:51;13.10;99.90
15707;DHT22;7953;54.302;10.128;2023-07-20T03:53:18;13.10;99.90
15707;DHT22;7953;54.302;10.128;2023-07-20T03:55:45;13.20;99.90
15707;DHT22;7953;54.302;10.128;2023-07-20T03:58:13;13.20;99.90
15707;DHT22;7953;54.302;10.128;2023-07-20T04:00:40;13.10;99.90
15707;DHT22;7953;54.302;10.128;2023-07-20T04:03:10;13.10;99.90
15707;DHT22;7953;54.302;10.128;2023-07-20T04:05:36;13.10;99.90
15707;DHT22;7953;54.302;10.128;2023-07-20T04:08:05;13.00;99.90
15707;DHT22;7953;54.302;10.128;2023-07-20T04:13:53;13.00;99.90
15707;DHT22;7953;54.302;10.128;2023-07-20T04:16:21;13.10;99.90
15707;DHT22;7953;54.302;10.128;2023-07-20T04:19:19;13.10;99.90
15707;DHT22;7953;54.302;10.128;2023-07-20T04:21:46;13.10;99.90
15707;DHT22;7953;54.302;10.128;2023-07-20T04:24:14;13.00;99.90
15707;DHT22;7953;54.302;10.128;2023-07-20T04:26:41;13.00;99.90
15707;DHT22;7953;54.302;10.128;2023-07-20T04:29:08;13.00;99.90
15707;DHT22;7953;54.302;10.128;2023-07-20T04:31:35;13.10;99.90
15707;DHT22;7953;54.302;10.128;2023-07-20T04:34:02;13.00;99.90
15707;DHT22;7953;54.302;10.128;2023-07-20T04:36:29;13.10;99.90
15707;DHT22;7953;54.302;10.128;2023-07-20T04:38:56;13.10;99.90
15707;DHT22;7953;54.302;10.128;2023-07-20T04:41:24;13.10;99.90
15707;DHT22;7953;54.302;10.128;2023-07-20T04:43:51;13.10;99.90
15707;DHT22;7953;54.302;10.128;2023-07-20T04:46:18;13.10;99.90
15707;DHT22;7953;54.302;10.128;2023-07-20T04:48:46;13.10;99.90
15707;DHT22;7953;54.302;10.128;2023-07-20T04:51:13;13.10;99.90
15707;DHT22;7953;54.302;10.128;2023-07-20T04:53:40;13.10;99.90
15707;DHT22;7953;54.302;10.128;2023-07-20T04:56:08;13.20;99.90
15707;DHT22;7953;54.302;10.128;2023-07-20T04:58:37;13.20;99.90
15707;DHT22;7953;54.302;10.128;2023-07-20T05:01:04;13.30;99.90
15707;DHT22;7953;54.302;10.128;2023-07-20T05:03:31;13.50;99.90
15707;DHT22;7953;54.302;10.128;2023-07-20T05:05:58;13.60;99.90
15707;DHT22;7953;54.302;10.128;2023-07-20T05:08:25;13.70;99.90
15707;DHT22;7953;54.302;10.128;2023-07-20T05:10:52;13.80;99.90
15707;DHT22;7953;54.302;10.128;2023-07-20T05:13:19;13.80;99.90
15707;DHT22;7953;54.302;10.128;2023-07-20T05:15:51;13.80;99.90
15707;DHT22;7953;54.302;10.128;2023-07-20T05:18:18;13.90;99.90
15707;DHT22;7953;54.302;10.128;2023-07-20T05:20:46;14.00;99.90
15707;DHT22;7953;54.302;10.128;2023-07-20T05:23:13;14.00;99.90
15707;DHT22;7953;54.302;10.128;2023-07-20T05:25:40;14.10;99.90
15707;DHT22;7953;54.302;10.128;2023-07-20T05:28:07;14.10;99.90
15707;DHT22;7953;54.302;10.128;2023-07-20T05:30:34;14.10;99.90
15707;DHT22;7953;54.302;10.128;2023-07-20T05:33:02;14.10;99.90
15707;DHT22;7953;54.302;10.128;2023-07-20T05:35:29;14.20;99.90
15707;DHT22;7953;54.302;10.128;2023-07-20T05:37:56;14.20;99.90
15707;DHT22;7953;54.302;10.128;2023-07-20T05:40:23;14.30;99.90
15707;DHT22;7953;54.302;10.128;2023-07-20T05:42:50;14.30;99.90
15707;DHT22;7953;54.302;10.128;2023-07-20T05:45:19;14.40;99.90
15707;DHT22;7953;54.302;10.128;2023-07-20T05:47:46;14.40;99.90
15707;DHT22;7953;54.302;10.128;2023-07-20T05:50:14;14.50;99.90
15707;DHT22;7953;54.302;10.128;2023-07-20T05:52:41;14.50;99.90
15707;DHT22;7953;54.302;10.128;2023-07-20T05:55:08;14.50;99.90
15707;DHT22;7953;54.302;10.128;2023-07-20T05:57:35;14.50;99.90
15707;DHT22;7953;54.302;10.128;2023-07-20T06:00:07;14.60;99.90
15707;DHT22;7953;54.302;10.128;2023-07-20T06:02:34;14.60;99.90
15707;DHT22;7953;54.302;10.128;2023-07-20T06:05:01;14.70;99.90
15707;DHT22;7953;54.302;10.128;2023-07-20T06:07:30;14.70;99.90
15707;DHT22;7953;54.302;10.128;2023-07-20T06:09:57;14.80;99.90
15707;DHT22;7953;54.302;10.128;2023-07-20T06:12:25;14.90;99.90
15707;DHT22;7953;54.302;10.128;2023-07-20T06:14:52;14.90;99.90
15707;DHT22;7953;54.302;10.128;2023-07-20T06:17:19;14.90;99.90
15707;DHT22;7953;54.302;10.128;2023-07-20T06:19:46;15.00;99.90
15707;DHT22;7953;54.302;10.128;2023-07-20T06:22:13;15.00;99.90
15707;DHT22;7953;54.302;10.128;2023-07-20T06:24:41;15.10;99.90
15707;DHT22;7953;54.302;10.128;2023-07-20T06:27:08;15.20;99.90
15707;DHT22;7953;54.302;10.128;2023-07-20T06:29:35;15.20;99.90
15707;DHT22;7953;54.302;10.128;2023-07-20T06:32:02;15.30;99.90
15707;DHT22;7953;54.302;10.128;2023-07-20T06:34:28;15.30;99.90
15707;DHT22;7953;54.302;10.128;2023-07-20T06:36:56;15.40;99.90
15707;DHT22;7953;54.302;10.128;2023-07-20T06:39:22;15.50;99.90
15707;DHT22;7953;54.302;10.128;2023-07-20T06:41:51;15.50;99.90
15707;DHT22;7953;54.302;10.128;2023-07-20T06:44:17;15.60;99.90
15707;DHT22;7953;54.302;10.128;2023-07-20T06:46:44;15.70;99.90
15707;DHT22;7953;54.302;10.128;2023-07-20T06:49:24;15.80;99.90
15707;DHT22;7953;54.302;10.128;2023-07-20T06:51:50;15.90;99.90
15707;DHT22;7953;54.302;10.128;2023-07-20T06:54:17;15.90;99.90
15707;DHT22;7953;54.302;10.128;2023-07-20T06:56:44;16.00;99.90
15707;DHT22;7953;54.302;10.128;2023-07-20T06:59:12;16.10;99.90
15707;DHT22;7953;54.302;10.128;2023-07-20T07:01:39;16.30;99.90
15707;DHT22;7953;54.302;10.128;2023-07-20T07:04:06;16.40;99.90
15707;DHT22;7953;54.302;10.128;2023-07-20T07:06:33;16.50;99.90
15707;DHT22;7953;54.302;10.128;2023-07-20T07:09:02;16.50;99.90
15707;DHT22;7953;54.302;10.128;2023-07-20T07:11:30;16.60;99.90
15707;DHT22;7953;54.302;10.128;2023-07-20T07:13:57;16.70;99.90
15707;DHT22;7953;54.302;10.128;2023-07-20T07:16:25;16.80;99.90
15707;DHT22;7953;54.302;10.128;2023-07-20T07:18:52;17.00;99.90
15707;DHT22;7953;54.302;10.128;2023-07-20T07:21:19;17.10;99.90
15707;DHT22;7953;54.302;10.128;2023-07-20T07:23:46;17.20;99.90
15707;DHT22;7953;54.302;10.128;2023-07-20T07:26:13;17.10;99.90
15707;DHT22;7953;54.302;10.128;2023-07-20T07:28:39;17.10;99.90
15707;DHT22;7953;54.302;10.128;2023-07-20T07:31:07;17.10;99.90
15707;DHT22;7953;54.302;10.128;2023-07-20T07:33:35;17.00;99.90
15707;DHT22;7953;54.302;10.128;2023-07-20T07:36:02;17.00;99.90
15707;DHT22;7953;54.302;10.128;2023-07-20T07:38:29;16.90;99.90
15707;DHT22;7953;54.302;10.128;2023-07-20T07:40:59;16.90;99.90
15707;DHT22;7953;54.302;10.128;2023-07-20T07:43:35;17.10;99.90
15707;DHT22;7953;54.302;10.128;2023-07-20T07:46:06;17.30;99.90
15707;DHT22;7953;54.302;10.128;2023-07-20T07:48:35;17.50;99.90
15707;DHT22;7953;54.302;10.128;2023-07-20T07:51:02;17.60;99.90
15707;DHT22;7953;54.302;10.128;2023-07-20T07:53:29;17.80;99.90
15707;DHT22;7953;54.302;10.128;2023-07-20T07:55:55;18.10;99.90
15707;DHT22;7953;54.302;10.128;2023-07-20T07:58:23;18.10;99.90
15707;DHT22;7953;54.302;10.128;2023-07-20T08:00:50;18.10;99.90
15707;DHT22;7953;54.302;10.128;2023-07-20T08:03:17;18.00;99.90
15707;DHT22;7953;54.302;10.128;2023-07-20T08:05:45;18.00;99.90
15707;DHT22;7953;54.302;10.128;2023-07-20T08:08:12;18.00;99.90
15707;DHT22;7953;54.302;10.128;2023-07-20T08:10:39;18.10;99.90
15707;DHT22;7953;54.302;10.128;2023-07-20T08:13:06;18.30;99.90
15707;DHT22;7953;54.302;10.128;2023-07-20T08:15:33;18.60;99.90
15707;DHT22;7953;54.302;10.128;2023-07-20T08:18:00;19.10;99.90
15707;DHT22;7953;54.302;10.128;2023-07-20T08:20:27;19.20;99.90
15707;DHT22;7953;54.302;10.128;2023-07-20T08:22:55;19.40;99.90
15707;DHT22;7953;54.302;10.128;2023-07-20T08:25:23;19.30;99.90
15707;DHT22;7953;54.302;10.128;2023-07-20T08:27:50;19.10;99.90
15707;DHT22;7953;54.302;10.128;2023-07-20T08:30:17;18.50;99.90
15707;DHT22;7953;54.302;10.128;2023-07-20T08:32:44;18.10;99.90
15707;DHT22;7953;54.302;10.128;2023-07-20T08:35:11;18.20;99.90
15707;DHT22;7953;54.302;10.128;2023-07-20T08:37:38;18.50;99.90
15707;DHT22;7953;54.302;10.128;2023-07-20T08:40:07;18.70;99.90
15707;DHT22;7953;54.302;10.128;2023-07-20T08:42:35;18.80;99.90
15707;DHT22;7953;54.302;10.128;2023-07-20T08:45:06;18.90;99.90
15707;DHT22;7953;54.302;10.128;2023-07-20T08:47:34;18.80;99.90
15707;DHT22;7953;54.302;10.128;2023-07-20T08:50:02;18.70;99.90
15707;DHT22;7953;54.302;10.128;2023-07-20T08:52:34;18.60;99.90
15707;DHT22;7953;54.302;10.128;2023-07-20T08:55:01;18.70;99.90
15707;DHT22;7953;54.302;10.128;2023-07-20T08:57:33;19.00;99.90
15707;DHT22;7953;54.302;10.128;2023-07-20T09:00:00;19.50;99.90
15707;DHT22;7953;54.302;10.128;2023-07-20T09:02:31;20.00;99.90
15707;DHT22;7953;54.302;10.128;2023-07-20T09:05:01;20.10;99.90
15707;DHT22;7953;54.302;10.128;2023-07-20T09:07:28;20.00;99.90
15707;DHT22;7953;54.302;10.128;2023-07-20T09:09:57;20.10;99.90
15707;DHT22;7953;54.302;10.128;2023-07-20T09:12:24;20.00;99.90
15707;DHT22;7953;54.302;10.128;2023-07-20T09:14:52;20.00;99.90
15707;DHT22;7953;54.302;10.128;2023-07-20T09:17:19;20.20;99.90
15707;DHT22;7953;54.302;10.128;2023-07-20T09:19:46;20.50;99.90
15707;DHT22;7953;54.302;10.128;2023-07-20T09:22:14;20.60;99.90
15707;DHT22;7953;54.302;10.128;2023-07-20T09:24:40;20.80;99.90
15707;DHT22;7953;54.302;10.128;2023-07-20T09:27:08;20.80;99.90
15707;DHT22;7953;54.302;10.128;2023-07-20T09:29:47;21.00;99.90
15707;DHT22;7953;54.302;10.128;2023-07-20T09:32:18;21.00;99.90
15707;DHT22;7953;54.302;10.128;2023-07-20T09:34:45;21.10;99.90
15707;DHT22;7953;54.302;10.128;2023-07-20T09:37:12;21.10;99.90
15707;DHT22;7953;54.302;10.128;2023-07-20T09:39:43;21.10;99.90
15707;DHT22;7953;54.302;10.128;2023-07-20T09:42:11;20.80;99.90
15707;DHT22;7953;54.302;10.128;2023-07-20T09:44:38;20.30;99.90
15707;DHT22;7953;54.302;10.128;2023-07-20T09:47:06;20.10;99.90
15707;DHT22;7953;54.302;10.128;2023-07-20T09:49:39;20.10;99.90
15707;DHT22;7953;54.302;10.128;2023-07-20T09:52:07;20.40;99.90
15707;DHT22;7953;54.302;10.128;2023-07-20T09:54:36;20.90;99.90
15707;DHT22;7953;54.302;10.128;2023-07-20T09:57:04;21.30;99.90
15707;DHT22;7953;54.302;10.128;2023-07-20T09:59:33;21.30;99.90
15707;DHT22;7953;54.302;10.128;2023-07-20T10:02:02;20.90;99.90
15707;DHT22;7953;54.302;10.128;2023-07-20T10:04:30;20.40;99.90
15707;DHT22;7953;54.302;10.128;2023-07-20T10:07:05;20.30;99.90
15707;DHT22;7953;54.302;10.128;2023-07-20T10:09:39;20.40;99.90
15707;DHT22;7953;54.302;10.128;2023-07-20T10:12:08;20.80;99.90
15707;DHT22;7953;54.302;10.128;2023-07-20T10:14:40;21.10;99.90
15707;DHT22;7953;54.302;10.128;2023-07-20T10:17:10;21.60;99.90
15707;DHT22;7953;54.302;10.128;2023-07-20T10:19:42;22.10;99.90
15707;DHT22;7953;54.302;10.128;2023-07-20T10:22:14;22.30;99.90
15707;DHT22;7953;54.302;10.128;2023-07-20T10:24:46;22.50;99.90
15707;DHT22;7953;54.302;10.128;2023-07-20T10:27:13;22.70;99.90
15707;DHT22;7953;54.302;10.128;2023-07-20T10:29:40;22.90;99.90
15707;DHT22;7953;54.302;10.128;2023-07-20T10:32:08;23.10;99.90
15707;DHT22;7953;54.302;10.128;2023-07-20T10:34:36;22.70;99.90
15707;DHT22;7953;54.302;10.128;2023-07-20T10:37:03;22.00;99.90
15707;DHT22;7953;54.302;10.128;2023-07-20T10:39:32;21.50;99.90
15707;DHT22;7953;54.302;10.128;2023-07-20T10:42:00;20.80;99.90
15707;DHT22;7953;54.302;10.128;2023-07-20T10:44:29;20.20;99.90
15707;DHT22;7953;54.302;10.128;2023-07-20T10:47:00;19.80;99.90
15707;DHT22;7953;54.302;10.128;2023-07-20T10:49:27;19.70;99.90
15707;DHT22;7953;54.302;10.128;2023-07-20T10:51:58;19.80;99.90
15707;DHT22;7953;54.302;10.128;2023-07-20T10:54:50;20.40;99.90
15707;DHT22;7953;54.302;10.128;2023-07-20T10:57:25;20.80;99.90
15707;DHT22;7953;54.302;10.128;2023-07-20T11:00:07;21.00;99.90
15707;DHT22;7953;54.302;10.128;2023-07-20T11:02:42;21.40;99.90
15707;DHT22;7953;54.302;10.128;2023-07-20T11:05:37;21.80;99.90
15707;DHT22;7953;54.302;10.128;2023-07-20T11:08:09;22.00;99.90
15707;DHT22;7953;54.302;10.128;2023-07-20T11:10:38;21.90;99.90
15707;DHT22;7953;54.302;10.128;2023-07-20T11:13:22;21.50;99.90
15707;DHT22;7953;54.302;10.128;2023-07-20T11:16:04;20.90;99.90
15707;DHT22;7953;54.302;10.128;2023-07-20T11:18:34;20.50;99.90
15707;DHT22;7953;54.302;10.128;2023-07-20T11:21:10;20.30;99.90
15707;DHT22;7953;54.302;10.128;2023-07-20T11:23:38;20.50;99.90
15707;DHT22;7953;54.302;10.128;2023-07-20T11:26:07;20.80;99.90
15707;DHT22;7953;54.302;10.128;2023-07-20T11:28:35;21.10;99.90
15707;DHT22;7953;54.302;10.128;2023-07-20T11:31:02;21.50;99.90
15707;DHT22;7953;54.302;10.128;2023-07-20T11:33:29;21.90;99.90
15707;DHT22;7953;54.302;10.128;2023-07-20T11:35:56;22.30;99.90
15707;DHT22;7953;54.302;10.128;2023-07-20T11:38:24;22.70;99.90
15707;DHT22;7953;54.302;10.128;2023-07-20T11:40:51;22.70;99.90
15707;DHT22;7953;54.302;10.128;2023-07-20T11:43:19;22.40;99.90
15707;DHT22;7953;54.302;10.128;2023-07-20T11:45:48;22.60;99.90
15707;DHT22;7953;54.302;10.128;2023-07-20T11:48:15;22.90;99.90
15707;DHT22;7953;54.302;10.128;2023-07-20T11:50:43;23.30;99.90
15707;DHT22;7953;54.302;10.128;2023-07-20T11:53:10;23.60;99.90
15707;DHT22;7953;54.302;10.128;2023-07-20T11:55:38;23.70;99.90
15707;DHT22;7953;54.302;10.128;2023-07-20T11:58:07;23.80;99.90
15707;DHT22;7953;54.302;10.128;2023-07-20T12:00:37;24.10;99.90
15707;DHT22;7953;54.302;10.128;2023-07-20T12:03:06;24.50;99.90
15707;DHT22;7953;54.302;10.128;2023-07-20T12:05:33;24.50;99.90
15707;DHT22;7953;54.302;10.128;2023-07-20T12:08:00;24.10;99.90
15707;DHT22;7953;54.302;10.128;2023-07-20T12:10:28;24.20;99.90
15707;DHT22;7953;54.302;10.128;2023-07-20T12:13:01;24.00;99.90
15707;DHT22;7953;54.302;10.128;2023-07-20T12:15:28;23.80;99.90
15707;DHT22;7953;54.302;10.128;2023-07-20T12:17:58;23.50;99.90
15707;DHT22;7953;54.302;10.128;2023-07-20T12:20:27;23.30;99.90
15707;DHT22;7953;54.302;10.128;2023-07-20T12:22:57;23.10;99.90
15707;DHT22;7953;54.302;10.128;2023-07-20T12:25:32;22.90;99.90
15707;DHT22;7953;54.302;10.128;2023-07-20T12:28:01;22.80;99.90
15707;DHT22;7953;54.302;10.128;2023-07-20T12:30:29;22.70;99.90
15707;DHT22;7953;54.302;10.128;2023-07-20T12:32:57;22.60;99.90
15707;DHT22;7953;54.302;10.128;2023-07-20T12:35:24;22.30;99.90
15707;DHT22;7953;54.302;10.128;2023-07-20T12:37:51;22.40;99.90
15707;DHT22;7953;54.302;10.128;2023-07-20T12:40:19;22.60;99.90
15707;DHT22;7953;54.302;10.128;2023-07-20T12:42:46;22.70;99.90
15707;DHT22;7953;54.302;10.128;2023-07-20T12:45:13;22.70;99.90
15707;DHT22;7953;54.302;10.128;2023-07-20T12:47:40;22.80;99.90
15707;DHT22;7953;54.302;10.128;2023-07-20T12:50:10;22.80;99.90
15707;DHT22;7953;54.302;10.128;2023-07-20T12:52:38;22.70;99.90
15707;DHT22;7953;54.302;10.128;2023-07-20T12:55:06;22.60;99.90
15707;DHT22;7953;54.302;10.128;2023-07-20T12:57:33;22.50;99.90
15707;DHT22;7953;54.302;10.128;2023-07-20T13:00:01;22.30;99.90
15707;DHT22;7953;54.302;10.128;2023-07-20T13:02:30;21.80;99.90
15707;DHT22;7953;54.302;10.128;2023-07-20T13:04:57;21.60;99.90
15707;DHT22;7953;54.302;10.128;2023-07-20T13:07:31;21.50;99.90
15707;DHT22;7953;54.302;10.128;2023-07-20T13:09:58;21.30;99.90
15707;DHT22;7953;54.302;10.128;2023-07-20T13:12:26;21.10;99.90
15707;DHT22;7953;54.302;10.128;2023-07-20T13:14:54;20.90;99.90
15707;DHT22;7953;54.302;10.128;2023-07-20T13:17:21;20.90;99.90
15707;DHT22;7953;54.302;10.128;2023-07-20T13:19:48;20.70;99.90
15707;DHT22;7953;54.302;10.128;2023-07-20T13:22:14;20.70;99.90
15707;DHT22;7953;54.302;10.128;2023-07-20T13:24:44;20.90;99.90
15707;DHT22;7953;54.302;10.128;2023-07-20T13:27:11;21.10;99.90
15707;DHT22;7953;54.302;10.128;2023-07-20T13:29:38;21.10;99.90
15707;DHT22;7953;54.302;10.128;2023-07-20T13:32:07;21.10;99.90
15707;DHT22;7953;54.302;10.128;2023-07-20T13:34:34;21.10;99.90
15707;DHT22;7953;54.302;10.128;2023-07-20T13:37:01;21.40;99.90
15707;DHT22;7953;54.302;10.128;2023-07-20T13:39:28;21.40;99.90
15707;DHT22;7953;54.302;10.128;2023-07-20T13:41:56;21.60;99.90
15707;DHT22;7953;54.302;10.128;2023-07-20T13:44:23;21.50;99.90
15707;DHT22;7953;54.302;10.128;2023-07-20T13:46:50;21.80;99.90
15707;DHT22;7953;54.302;10.128;2023-07-20T13:49:17;21.90;99.90
15707;DHT22;7953;54.302;10.128;2023-07-20T13:51:44;22.10;99.90
15707;DHT22;7953;54.302;10.128;2023-07-20T13:54:11;22.30;99.90
15707;DHT22;7953;54.302;10.128;2023-07-20T13:56:38;22.30;99.90
15707;DHT22;7953;54.302;10.128;2023-07-20T13:59:06;22.20;99.90
15707;DHT22;7953;54.302;10.128;2023-07-20T14:01:33;22.40;99.90
15707;DHT22;7953;54.302;10.128;2023-07-20T14:04:01;22.20;99.90
15707;DHT22;7953;54.302;10.128;2023-07-20T14:06:31;22.10;99.90
15707;DHT22;7953;54.302;10.128;2023-07-20T14:08:58;22.00;99.90
15707;DHT22;7953;54.302;10.128;2023-07-20T14:11:25;22.10;99.90
15707;DHT22;7953;54.302;10.128;2023-07-20T14:13:52;22.20;99.90
15707;DHT22;7953;54.302;10.128;2023-07-20T14:16:21;22.30;99.90
15707;DHT22;7953;54.302;10.128;2023-07-20T14:18:48;22.50;99.90
15707;DHT22;7953;54.302;10.128;2023-07-20T14:21:15;22.60;99.90
15707;DHT22;7953;54.302;10.128;2023-07-20T14:23:42;22.60;99.90
15707;DHT22;7953;54.302;10.128;2023-07-20T14:26:08;22.70;99.90
15707;DHT22;7953;54.302;10.128;2023-07-20T14:28:35;23.00;99.90
15707;DHT22;7953;54.302;10.128;2023-07-20T14:31:03;23.40;99.90
15707;DHT22;7953;54.302;10.128;2023-07-20T14:33:31;23.60;99.90
15707;DHT22;7953;54.302;10.128;2023-07-20T14:35:58;23.80;99.90
15707;DHT22;7953;54.302;10.128;2023-07-20T14:38:27;24.00;99.90
15707;DHT22;7953;54.302;10.128;2023-07-20T14:40:54;24.30;99.90
15707;DHT22;7953;54.302;10.128;2023-07-20T14:43:21;24.30;99.90
15707;DHT22;7953;54.302;10.128;2023-07-20T14:45:47;24.20;99.90
15707;DHT22;7953;54.302;10.128;2023-07-20T14:48:14;23.80;99.90
15707;DHT22;7953;54.302;10.128;2023-07-20T14:50:43;23.50;99.90
15707;DHT22;7953;54.302;10.128;2023-07-20T14:53:11;23.10;99.90
15707;DHT22;7953;54.302;10.128;2023-07-20T14:55:38;22.70;99.90
15707;DHT22;7953;54.302;10.128;2023-07-20T14:58:05;22.40;99.90
15707;DHT22;7953;54.302;10.128;2023-07-20T15:00:32;22.30;99.90
15707;DHT22;7953;54.302;10.128;2023-07-20T15:02:58;22.50;99.90
15707;DHT22;7953;54.302;10.128;2023-07-20T15:05:25;22.70;99.90
15707;DHT22;7953;54.302;10.128;2023-07-20T15:07:54;22.90;99.90
15707;DHT22;7953;54.302;10.128;2023-07-20T15:10:21;23.10;99.90
15707;DHT22;7953;54.302;10.128;2023-07-20T15:12:48;23.00;99.90
15707;DHT22;7953;54.302;10.128;2023-07-20T15:15:15;22.70;99.90
15707;DHT22;7953;54.302;10.128;2023-07-20T15:17:43;22.60;99.90
15707;DHT22;7953;54.302;10.128;2023-07-20T15:20:12;22.60;99.90
15707;DHT22;7953;54.302;10.128;2023-07-20T15:22:39;22.20;99.90
15707;DHT22;7953;54.302;10.128;2023-07-20T15:25:09;22.40;99.90
15707;DHT22;7953;54.302;10.128;2023-07-20T15:27:37;22.70;99.90
15707;DHT22;7953;54.302;10.128;2023-07-20T15:30:05;22.70;99.90
15707;DHT22;7953;54.302;10.128;2023-07-20T15:32:33;22.60;99.90
15707;DHT22;7953;54.302;10.128;2023-07-20T15:34:59;22.40;99.90
15707;DHT22;7953;54.302;10.128;2023-07-20T15:37:28;22.20;99.90
15707;DHT22;7953;54.302;10.128;2023-07-20T15:39:55;22.00;99.90
15707;DHT22;7953;54.302;10.128;2023-07-20T15:42:23;21.80;99.90